sensor_id;sensor_type;location;lat;lon;timestamp;pressure;altitude;pressure_sealevel;temperature;humidity
6433;BME280;3249;42.690;23.260;2023-08-07T00:00:08;93766.00;;;16.09;100.00
6433;BME280;3249;42.690;23.260;2023-08-07T00:02:38;93766.78;;;15.79;100.00
6433;BME280;3249;42.690;23.260;2023-08-07T00:05:08;93755.41;;;15.80;100.00
6433;BME280;3249;42.690;23.260;2023-08-07T00:07:37;93764.22;;;15.89;100.00
6433;BME280;3249;42.690;23.260;2023-08-07T00:10:07;93757.97;;;16.15;100.00
6433;BME280;3249;42.690;23.260;2023-08-07T00:12:38;93767.53;;;16.25;100.00
6433;BME280;3249;42.690;23.260;2023-08-07T00:15:09;93745.75;;;16.16;100.00
6433;BME280;3249;42.690;23.260;2023-08-07T00:17:38;93752.72;;;16.30;100.00
6433;BME280;3249;42.690;23.260;2023-08-07T00:20:08;93765.44;;;16.37;100.00
6433;BME280;3249;42.690;23.260;2023-08-07T00:22:37;93771.16;;;16.39;100.00
6433;BME280;3249;42.690;23.260;2023-08-07T00:25:07;93764.16;;;16.39;100.00
6433;BME280;3249;42.690;23.260;2023-08-07T00:27:39;93775.56;;;16.38;100.00
6433;BME280;3249;42.690;23.260;2023-08-07T00:30:09;93772.97;;;16.33;100.00
6433;BME280;3249;42.690;23.260;2023-08-07T00:32:39;93771.69;;;16.31;100.00
6433;BME280;3249;42.690;23.260;2023-08-07T00:35:08;93773.03;;;15.98;100.00
6433;BME280;3249;42.690;23.260;2023-08-07T00:37:37;93766.78;;;15.94;100.00
6433;BME280;3249;42.690;23.260;2023-08-07T00:40:07;93775.63;;;15.83;100.00
6433;BME280;3249;42.690;23.260;2023-08-07T00:42:39;93773.03;;;15.78;100.00
6433;BME280;3249;42.690;23.260;2023-08-07T00:45:09;93767.06;;;15.58;100.00
6433;BME280;3249;42.690;23.260;2023-08-07T00:47:39;93766.25;;;15.47;100.00
6433;BME280;3249;42.690;23.260;2023-08-07T00:50:10;93750.59;;;15.07;100.00
6433;BME280;3249;42.690;23.260;2023-08-07T00:52:39;93777.69;;;15.46;100.00
6433;BME280;3249;42.690;23.260;2023-08-07T00:55:09;93777.69;;;15.51;100.00
6433;BME280;3249;42.690;23.260;2023-08-07T00:57:40;93780.56;;;15.70;100.00
6433;BME280;3249;42.690;23.260;2023-08-07T01:00:12;93791.16;;;15.43;100.00
6433;BME280;3249;42.690;23.260;2023-08-07T01:02:42;93798.44;;;15.41;100.00
6433;BME280;3249;42.690;23.260;2023-08-07T01:05:13;93798.94;;;15.38;100.00
6433;BME280;3249;42.690;23.260;2023-08-07T01:07:43;93796.03;;;15.20;100.00
6433;BME280;3249;42.690;23.260;2023-08-07T01:10:12;93806.16;;;15.26;100.00
6433;BME280;3249;42.690;23.260;2023-08-07T01:12:48;93807.13;;;15.05;100.00
6433;BME280;3249;42.690;23.260;2023-08-07T01:15:23;93804.53;;;15.10;100.00
6433;BME280;3249;42.690;23.260;2023-08-07T01:17:55;93807.94;;;15.21;100.00
6433;BME280;3249;42.690;23.260;2023-08-07T01:20:25;93812.88;;;15.22;100.00
6433;BME280;3249;42.690;23.260;2023-08-07T01:22:57;93816.88;;;14.83;100.00
6433;BME280;3249;42.690;23.260;2023-08-07T01:25:26;93815.31;;;14.82;100.00
6433;BME280;3249;42.690;23.260;2023-08-07T01:28:00;93797.25;;;14.92;100.00
6433;BME280;3249;42.690;23.260;2023-08-07T01:30:35;93814.91;;;15.05;100.00
6433;BME280;3249;42.690;23.260;2023-08-07T01:33:11;93807.69;;;15.22;100.00
6433;BME280;3249;42.690;23.260;2023-08-07T01:35:45;93807.25;;;15.45;100.00
6433;BME280;3249;42.690;23.260;2023-08-07T01:38:17;93796.63;;;15.47;100.00
6433;BME280;3249;42.690;23.260;2023-08-07T01:40:49;93813.53;;;15.64;100.00
6433;BME280;3249;42.690;23.260;2023-08-07T01:43:19;93807.78;;;15.62;100.00
6433;BME280;3249;42.690;23.260;2023-08-07T01:45:49;93806.50;;;15.65;100.00
6433;BME280;3249;42.690;23.260;2023-08-07T01:48:18;93813.50;;;15.59;100.00
6433;BME280;3249;42.690;23.260;2023-08-07T01:50:47;93810.13;;;15.59;100.00
6433;BME280;3249;42.690;23.260;2023-08-07T01:53:18;93809.84;;;15.50;100.00
6433;BME280;3249;42.690;23.260;2023-08-07T01:55:48;93803.63;;;15.46;100.00
6433;BME280;3249;42.690;23.260;2023-08-07T01:58:17;93806.75;;;15.53;100.00
6433;BME280;3249;42.690;23.260;2023-08-07T02:00:46;93810.66;;;15.51;100.00
6433;BME280;3249;42.690;23.260;2023-08-07T02:03:15;93809.84;;;15.45;100.00
6433;BME280;3249;42.690;23.260;2023-08-07T02:05:45;93811.81;;;15.18;100.00
6433;BME280;3249;42.690;23.260;2023-08-07T02:08:14;93816.50;;;15.26;100.00
6433;BME280;3249;42.690;23.260;2023-08-07T02:10:45;93823.31;;;15.37;100.00
6433;BME280;3249;42.690;23.260;2023-08-07T02:13:14;93820.41;;;15.29;100.00
6433;BME280;3249;42.690;23.260;2023-08-07T02:15:43;93820.41;;;15.24;100.00
6433;BME280;3249;42.690;23.260;2023-08-07T02:18:12;93823.75;;;15.14;100.00
6433;BME280;3249;42.690;23.260;2023-08-07T02:20:42;93816.44;;;14.96;100.00
6433;BME280;3249;42.690;23.260;2023-08-07T02:23:12;93833.00;;;14.95;100.00
6433;BME280;3249;42.690;23.260;2023-08-07T02:25:40;93840.25;;;14.88;100.00
6433;BME280;3249;42.690;23.260;2023-08-07T02:28:13;93838.66;;;14.87;100.00
6433;BME280;3249;42.690;23.260;2023-08-07T02:30:45;93836.13;;;14.92;100.00
6433;BME280;3249;42.690;23.260;2023-08-07T02:33:15;93837.13;;;14.91;100.00
6433;BME280;3249;42.690;23.260;2023-08-07T02:35:44;93841.81;;;14.94;100.00
6433;BME280;3249;42.690;23.260;2023-08-07T02:38:13;93844.41;;;14.94;100.00
6433;BME280;3249;42.690;23.260;2023-08-07T02:40:42;93830.94;;;14.92;100.00
6433;BME280;3249;42.690;23.260;2023-08-07T02:43:14;93830.16;;;14.97;100.00
6433;BME280;3249;42.690;23.260;2023-08-07T02:45:42;93830.69;;;14.99;100.00
6433;BME280;3249;42.690;23.260;2023-08-07T02:48:12;93843.91;;;15.02;100.00
6433;BME280;3249;42.690;23.260;2023-08-07T02:50:41;93829.97;;;14.62;100.00
6433;BME280;3249;42.690;23.260;2023-08-07T02:53:11;93838.84;;;14.71;100.00
6433;BME280;3249;42.690;23.260;2023-08-07T02:55:42;93842.97;;;14.67;100.00
6433;BME280;3249;42.690;23.260;2023-08-07T02:58:14;93843.53;;;14.32;100.00
6433;BME280;3249;42.690;23.260;2023-08-07T03:00:44;93851.69;;;14.19;100.00
6433;BME280;3249;42.690;23.260;2023-08-07T03:03:13;93841.19;;;13.99;100.00
6433;BME280;3249;42.690;23.260;2023-08-07T03:05:48;93847.13;;;14.26;100.00
6433;BME280;3249;42.690;23.260;2023-08-07T03:08:17;93847.09;;;14.21;100.00
6433;BME280;3249;42.690;23.260;2023-08-07T03:10:50;93846.50;;;14.14;100.00
6433;BME280;3249;42.690;23.260;2023-08-07T03:13:25;93847.00;;;14.43;100.00
6433;BME280;3249;42.690;23.260;2023-08-07T03:16:05;93865.44;;;14.56;100.00
6433;BME280;3249;42.690;23.260;2023-08-07T03:18:35;93866.19;;;14.52;100.00
6433;BME280;3249;42.690;23.260;2023-08-07T03:21:05;93852.44;;;14.46;100.00
6433;BME280;3249;42.690;23.260;2023-08-07T03:23:34;93859.75;;;14.54;100.00
6433;BME280;3249;42.690;23.260;2023-08-07T03:26:06;93869.59;;;14.57;100.00
6433;BME280;3249;42.690;23.260;2023-08-07T03:28:39;93873.25;;;14.61;100.00
6433;BME280;3249;42.690;23.260;2023-08-07T03:31:11;93865.50;;;14.61;100.00
6433;BME280;3249;42.690;23.260;2023-08-07T03:33:40;93868.09;;;14.66;100.00
6433;BME280;3249;42.690;23.260;2023-08-07T03:36:10;93884.97;;;14.74;100.00
6433;BME280;3249;42.690;23.260;2023-08-07T03:38:40;93888.91;;;14.76;100.00
6433;BME280;3249;42.690;23.260;2023-08-07T03:41:10;93900.34;;;14.85;100.00
6433;BME280;3249;42.690;23.260;2023-08-07T03:43:43;93905.13;;;15.08;100.00
6433;BME280;3249;42.690;23.260;2023-08-07T03:46:13;93906.47;;;15.21;100.00
6433;BME280;3249;42.690;23.260;2023-08-07T03:48:42;93904.41;;;15.23;100.00
6433;BME280;3249;42.690;23.260;2023-08-07T03:51:11;93907.81;;;15.28;100.00
6433;BME280;3249;42.690;23.260;2023-08-07T03:53:45;93910.91;;;15.25;100.00
6433;BME280;3249;42.690;23.260;2023-08-07T03:56:14;93883.91;;;15.16;100.00
6433;BME280;3249;42.690;23.260;2023-08-07T03:58:46;93903.97;;;15.36;100.00
6433;BME280;3249;42.690;23.260;2023-08-07T04:01:17;93912.78;;;15.35;100.00
6433;BME280;3249;42.690;23.260;2023-08-07T04:03:47;93922.69;;;15.38;100.00
6433;BME280;3249;42.690;23.260;2023-08-07T04:06:16;93924.84;;;15.66;100.00
6433;BME280;3249;42.690;23.260;2023-08-07T04:08:48;93927.00;;;15.99;100.00
6433;BME280;3249;42.690;23.260;2023-08-07T04:11:16;93934.09;;;16.43;100.00
6433;BME280;3249;42.690;23.260;2023-08-07T04:13:48;93934.31;;;16.52;100.00
6433;BME280;3249;42.690;23.260;2023-08-07T04:16:17;93934.06;;;16.53;100.00
6433;BME280;3249;42.690;23.260;2023-08-07T04:18:46;93934.59;;;16.45;100.00
6433;BME280;3249;42.690;23.260;2023-08-07T04:21:16;93941.88;;;16.43;100.00
6433;BME280;3249;42.690;23.260;2023-08-07T04:23:45;93944.47;;;16.48;100.00
6433;BME280;3249;42.690;23.260;2023-08-07T04:26:13;93941.34;;;16.41;100.00
6433;BME280;3249;42.690;23.260;2023-08-07T04:28:42;93944.97;;;16.35;100.00
6433;BME280;3249;42.690;23.260;2023-08-07T04:31:14;93955.06;;;16.32;100.00
6433;BME280;3249;42.690;23.260;2023-08-07T04:33:43;93952.72;;;16.25;100.00
6433;BME280;3249;42.690;23.260;2023-08-07T04:36:12;93946.25;;;16.23;100.00
6433;BME280;3249;42.690;23.260;2023-08-07T04:38:41;93949.63;;;16.28;100.00
6433;BME280;3249;42.690;23.260;2023-08-07T04:41:10;93927.56;;;16.26;100.00
6433;BME280;3249;42.690;23.260;2023-08-07T04:43:39;93951.72;;;16.46;100.00
6433;BME280;3249;42.690;23.260;2023-08-07T04:46:09;93951.72;;;16.41;100.00
6433;BME280;3249;42.690;23.260;2023-08-07T04:48:41;93948.34;;;16.41;100.00
6433;BME280;3249;42.690;23.260;2023-08-07T04:51:10;93959.78;;;16.55;100.00
6433;BME280;3249;42.690;23.260;2023-08-07T04:53:39;93954.06;;;16.53;100.00
6433;BME280;3249;42.690;23.260;2023-08-07T04:56:07;93945.22;;;16.64;100.00
6433;BME280;3249;42.690;23.260;2023-08-07T04:58:37;93952.78;;;16.65;100.00
6433;BME280;3249;42.690;23.260;2023-08-07T05:01:06;93953.28;;;16.92;100.00
6433;BME280;3249;42.690;23.260;2023-08-07T05:03:35;93949.16;;;16.71;100.00
6433;BME280;3249;42.690;23.260;2023-08-07T05:06:07;93949.06;;;17.06;100.00
6433;BME280;3249;42.690;23.260;2023-08-07T05:08:35;93949.59;;;17.13;100.00
6433;BME280;3249;42.690;23.260;2023-08-07T05:11:05;93943.38;;;16.99;100.00
6433;BME280;3249;42.690;23.260;2023-08-07T05:13:34;93938.16;;;17.09;100.00
6433;BME280;3249;42.690;23.260;2023-08-07T05:16:03;93932.50;;;16.87;100.00
6433;BME280;3249;42.690;23.260;2023-08-07T05:18:32;93936.38;;;16.90;100.00
6433;BME280;3249;42.690;23.260;2023-08-07T05:21:01;93940.75;;;17.09;100.00
6433;BME280;3249;42.690;23.260;2023-08-07T05:23:33;93939.69;;;17.10;100.00
6433;BME280;3249;42.690;23.260;2023-08-07T05:26:02;93929.38;;;16.50;100.00
6433;BME280;3249;42.690;23.260;2023-08-07T05:28:32;93941.06;;;16.88;100.00
6433;BME280;3249;42.690;23.260;2023-08-07T05:31:00;93941.06;;;16.83;100.00
6433;BME280;3249;42.690;23.260;2023-08-07T05:33:29;93943.88;;;17.11;100.00
6433;BME280;3249;42.690;23.260;2023-08-07T05:35:58;93950.34;;;17.19;100.00
6433;BME280;3249;42.690;23.260;2023-08-07T05:38:27;93947.25;;;17.17;100.00
6433;BME280;3249;42.690;23.260;2023-08-07T05:40:59;93934.00;;;17.08;100.00
6433;BME280;3249;42.690;23.260;2023-08-07T05:43:28;93951.47;;;16.48;100.00
6433;BME280;3249;42.690;23.260;2023-08-07T05:45:57;93952.47;;;16.37;100.00
6433;BME280;3249;42.690;23.260;2023-08-07T05:48:26;93948.63;;;16.49;100.00
6433;BME280;3249;42.690;23.260;2023-08-07T05:50:56;93956.41;;;16.79;100.00
6433;BME280;3249;42.690;23.260;2023-08-07T05:53:25;93946.28;;;16.53;100.00
6433;BME280;3249;42.690;23.260;2023-08-07T05:55:54;93955.09;;;16.92;100.00
6433;BME280;3249;42.690;23.260;2023-08-07T05:58:26;93952.47;;;17.07;100.00
6433;BME280;3249;42.690;23.260;2023-08-07T06:00:55;93947.78;;;17.04;100.00
6433;BME280;3249;42.690;23.260;2023-08-07T06:03:24;93944.31;;;17.33;100.00
6433;BME280;3249;42.690;23.260;2023-08-07T06:05:54;93927.19;;;17.22;100.00
6433;BME280;3249;42.690;23.260;2023-08-07T06:08:23;93952.84;;;17.64;100.00
6433;BME280;3249;42.690;23.260;2023-08-07T06:10:52;93949.44;;;17.68;100.00
6433;BME280;3249;42.690;23.260;2023-08-07T06:13:21;93936.97;;;17.60;100.00
6433;BME280;3249;42.690;23.260;2023-08-07T06:15:52;93938.19;;;17.78;100.00
6433;BME280;3249;42.690;23.260;2023-08-07T06:18:21;93940.19;;;17.96;100.00
6433;BME280;3249;42.690;23.260;2023-08-07T06:20:51;93931.50;;;18.11;100.00
6433;BME280;3249;42.690;23.260;2023-08-07T06:23:20;93927.28;;;18.20;100.00
6433;BME280;3249;42.690;23.260;2023-08-07T06:25:48;93939.34;;;18.49;100.00
6433;BME280;3249;42.690;23.260;2023-08-07T06:28:17;93940.56;;;18.62;100.00
6433;BME280;3249;42.690;23.260;2023-08-07T06:30:47;93943.72;;;18.54;100.00
6433;BME280;3249;42.690;23.260;2023-08-07T06:33:19;93943.81;;;18.44;100.00
6433;BME280;3249;42.690;23.260;2023-08-07T06:35:48;93946.59;;;18.57;100.00
6433;BME280;3249;42.690;23.260;2023-08-07T06:38:16;93938.06;;;18.47;100.00
6433;BME280;3249;42.690;23.260;2023-08-07T06:40:45;93939.56;;;18.53;100.00
6433;BME280;3249;42.690;23.260;2023-08-07T06:43:15;93955.03;;;18.44;97.07
6433;BME280;3249;42.690;23.260;2023-08-07T06:45:45;93955.00;;;18.49;93.89
6433;BME280;3249;42.690;23.260;2023-08-07T06:48:18;93949.00;;;18.05;100.00
6433;BME280;3249;42.690;23.260;2023-08-07T06:50:47;93953.41;;;18.04;100.00
6433;BME280;3249;42.690;23.260;2023-08-07T06:53:16;93945.06;;;18.08;100.00
6433;BME280;3249;42.690;23.260;2023-08-07T06:55:47;93952.81;;;18.17;100.00
6433;BME280;3249;42.690;23.260;2023-08-07T06:58:16;93947.16;;;18.11;99.70
6433;BME280;3249;42.690;23.260;2023-08-07T07:00:45;93955.00;;;18.49;95.95
6433;BME280;3249;42.690;23.260;2023-08-07T07:03:14;93955.00;;;18.49;97.35
6433;BME280;3249;42.690;23.260;2023-08-07T07:05:46;93958.78;;;18.67;99.07
6433;BME280;3249;42.690;23.260;2023-08-07T07:08:15;93938.25;;;18.17;100.00
6433;BME280;3249;42.690;23.260;2023-08-07T07:10:44;93952.34;;;18.54;97.44
6433;BME280;3249;42.690;23.260;2023-08-07T07:13:12;93930.16;;;18.57;95.87
6433;BME280;3249;42.690;23.260;2023-08-07T07:15:42;93957.00;;;18.91;92.91
6433;BME280;3249;42.690;23.260;2023-08-07T07:18:11;93950.81;;;19.10;90.01
6433;BME280;3249;42.690;23.260;2023-08-07T07:20:40;93955.16;;;19.20;88.91
6433;BME280;3249;42.690;23.260;2023-08-07T07:23:11;93962.53;;;19.13;88.26
6433;BME280;3249;42.690;23.260;2023-08-07T07:25:40;93953.38;;;18.87;87.71
6433;BME280;3249;42.690;23.260;2023-08-07T07:28:09;93956.63;;;18.74;88.88
6433;BME280;3249;42.690;23.260;2023-08-07T07:30:39;93939.41;;;18.73;89.67
6433;BME280;3249;42.690;23.260;2023-08-07T07:33:08;93946.19;;;18.74;89.49
6433;BME280;3249;42.690;23.260;2023-08-07T07:35:39;93945.69;;;19.00;86.87
6433;BME280;3249;42.690;23.260;2023-08-07T07:38:11;93941.03;;;18.97;81.76
6433;BME280;3249;42.690;23.260;2023-08-07T07:40:41;93934.97;;;19.30;86.64
6433;BME280;3249;42.690;23.260;2023-08-07T07:43:11;93942.16;;;19.15;87.60
6433;BME280;3249;42.690;23.260;2023-08-07T07:45:40;93939.03;;;19.13;93.49
6433;BME280;3249;42.690;23.260;2023-08-07T07:48:08;93951.25;;;19.17;89.51
6433;BME280;3249;42.690;23.260;2023-08-07T07:50:38;93948.59;;;19.27;89.94
6433;BME280;3249;42.690;23.260;2023-08-07T07:53:07;93940.75;;;18.99;85.01
6433;BME280;3249;42.690;23.260;2023-08-07T07:55:38;93945.88;;;19.37;87.57
6433;BME280;3249;42.690;23.260;2023-08-07T07:58:07;93934.63;;;19.37;90.73
6433;BME280;3249;42.690;23.260;2023-08-07T08:00:37;93950.13;;;19.75;86.13
6433;BME280;3249;42.690;23.260;2023-08-07T08:03:06;93948.97;;;19.63;86.31
6433;BME280;3249;42.690;23.260;2023-08-07T08:05:35;93937.59;;;19.54;85.38
6433;BME280;3249;42.690;23.260;2023-08-07T08:08:05;93944.38;;;19.55;84.92
6433;BME280;3249;42.690;23.260;2023-08-07T08:10:34;93939.44;;;19.72;85.29
6433;BME280;3249;42.690;23.260;2023-08-07T08:13:08;93933.47;;;19.71;85.85
6433;BME280;3249;42.690;23.260;2023-08-07T08:15:37;93944.38;;;19.97;81.43
6433;BME280;3249;42.690;23.260;2023-08-07T08:18:07;93944.13;;;20.17;80.62
6433;BME280;3249;42.690;23.260;2023-08-07T08:20:36;93940.03;;;20.11;81.88
6433;BME280;3249;42.690;23.260;2023-08-07T08:23:05;93926.66;;;20.12;82.68
6433;BME280;3249;42.690;23.260;2023-08-07T08:25:34;93921.22;;;20.09;82.34
6433;BME280;3249;42.690;23.260;2023-08-07T08:28:05;93929.84;;;20.28;83.22
6433;BME280;3249;42.690;23.260;2023-08-07T08:30:35;93931.66;;;20.46;79.11
6433;BME280;3249;42.690;23.260;2023-08-07T08:33:04;93923.47;;;20.34;80.67
6433;BME280;3249;42.690;23.260;2023-08-07T08:35:37;93921.97;;;20.46;77.48
6433;BME280;3249;42.690;23.260;2023-08-07T08:38:06;93921.81;;;20.56;77.00
6433;BME280;3249;42.690;23.260;2023-08-07T08:40:35;93929.31;;;20.63;78.21
6433;BME280;3249;42.690;23.260;2023-08-07T08:43:11;93923.50;;;20.66;76.90
6433;BME280;3249;42.690;23.260;2023-08-07T08:45:41;93935.59;;;20.62;77.61
6433;BME280;3249;42.690;23.260;2023-08-07T08:48:12;93926.28;;;20.37;78.55
6433;BME280;3249;42.690;23.260;2023-08-07T08:50:48;93914.78;;;20.38;77.82
6433;BME280;3249;42.690;23.260;2023-08-07T08:53:20;93926.34;;;20.51;75.56
6433;BME280;3249;42.690;23.260;2023-08-07T08:55:50;93912.72;;;20.54;75.06
6433;BME280;3249;42.690;23.260;2023-08-07T08:58:23;93914.59;;;20.67;72.29
6433;BME280;3249;42.690;23.260;2023-08-07T09:00:52;93919.72;;;20.72;73.94
6433;BME280;3249;42.690;23.260;2023-08-07T09:03:21;93922.44;;;20.67;76.35
6433;BME280;3249;42.690;23.260;2023-08-07T09:05:53;93925.84;;;20.99;73.31
6433;BME280;3249;42.690;23.260;2023-08-07T09:08:22;93927.72;;;21.26;71.94
6433;BME280;3249;42.690;23.260;2023-08-07T09:10:55;93914.63;;;21.12;71.58
6433;BME280;3249;42.690;23.260;2023-08-07T09:13:28;93923.72;;;21.15;72.07
6433;BME280;3249;42.690;23.260;2023-08-07T09:15:59;93922.78;;;21.38;71.56
6433;BME280;3249;42.690;23.260;2023-08-07T09:18:29;93914.44;;;21.49;69.46
6433;BME280;3249;42.690;23.260;2023-08-07T09:20:58;93904.34;;;21.43;68.76
6433;BME280;3249;42.690;23.260;2023-08-07T09:23:27;93887.94;;;21.51;69.23
6433;BME280;3249;42.690;23.260;2023-08-07T09:26:00;93902.41;;;21.75;66.69
6433;BME280;3249;42.690;23.260;2023-08-07T09:28:34;93882.97;;;21.63;67.57
6433;BME280;3249;42.690;23.260;2023-08-07T09:31:06;93893.84;;;21.97;67.30
6433;BME280;3249;42.690;23.260;2023-08-07T09:33:35;93897.47;;;21.74;66.31
6433;BME280;3249;42.690;23.260;2023-08-07T09:36:04;93909.56;;;21.43;66.54
6433;BME280;3249;42.690;23.260;2023-08-07T09:38:33;93904.16;;;21.39;65.50
6433;BME280;3249;42.690;23.260;2023-08-07T09:41:03;93883.88;;;21.58;64.83
6433;BME280;3249;42.690;23.260;2023-08-07T09:43:36;93905.13;;;21.84;62.88
6433;BME280;3249;42.690;23.260;2023-08-07T09:46:07;93897.34;;;21.79;66.08
6433;BME280;3249;42.690;23.260;2023-08-07T09:48:39;93907.63;;;21.62;60.29
6433;BME280;3249;42.690;23.260;2023-08-07T09:51:09;93895.81;;;21.78;62.70
6433;BME280;3249;42.690;23.260;2023-08-07T09:53:38;93899.44;;;22.04;63.18
6433;BME280;3249;42.690;23.260;2023-08-07T09:56:07;93916.50;;;22.15;58.50
6433;BME280;3249;42.690;23.260;2023-08-07T09:58:46;93908.41;;;22.25;57.11
6433;BME280;3249;42.690;23.260;2023-08-07T10:01:16;93908.88;;;22.27;55.07
6433;BME280;3249;42.690;23.260;2023-08-07T10:03:45;93895.47;;;22.29;54.28
6433;BME280;3249;42.690;23.260;2023-08-07T10:06:15;93894.56;;;22.11;55.58
6433;BME280;3249;42.690;23.260;2023-08-07T10:08:45;93896.72;;;22.31;59.64
6433;BME280;3249;42.690;23.260;2023-08-07T10:11:14;93905.63;;;22.44;56.78
6433;BME280;3249;42.690;23.260;2023-08-07T10:13:47;93912.13;;;22.46;55.70
6433;BME280;3249;42.690;23.260;2023-08-07T10:16:17;93905.28;;;22.23;57.47
6433;BME280;3249;42.690;23.260;2023-08-07T10:18:45;93909.59;;;22.55;55.43
6433;BME280;3249;42.690;23.260;2023-08-07T10:21:15;93898.31;;;22.54;57.74
6433;BME280;3249;42.690;23.260;2023-08-07T10:23:44;93896.81;;;22.84;55.38
6433;BME280;3249;42.690;23.260;2023-08-07T10:26:14;93906.09;;;22.59;54.34
6433;BME280;3249;42.690;23.260;2023-08-07T10:28:48;93895.81;;;22.49;56.76
6433;BME280;3249;42.690;23.260;2023-08-07T10:31:20;93895.91;;;22.66;55.55
6433;BME280;3249;42.690;23.260;2023-08-07T10:33:51;93903.69;;;22.49;56.54
6433;BME280;3249;42.690;23.260;2023-08-07T10:36:20;93869.78;;;22.39;60.06
6433;BME280;3249;42.690;23.260;2023-08-07T10:38:49;93896.22;;;22.65;59.82
6433;BME280;3249;42.690;23.260;2023-08-07T10:41:18;93886.50;;;22.87;56.83
6433;BME280;3249;42.690;23.260;2023-08-07T10:43:51;93879.66;;;22.86;57.18
6433;BME280;3249;42.690;23.260;2023-08-07T10:46:22;93876.66;;;23.01;60.13
6433;BME280;3249;42.690;23.260;2023-08-07T10:48:54;93866.03;;;23.06;54.56
6433;BME280;3249;42.690;23.260;2023-08-07T10:51:29;93883.50;;;23.41;54.02
6433;BME280;3249;42.690;23.260;2023-08-07T10:53:59;93891.47;;;23.28;53.60
6433;BME280;3249;42.690;23.260;2023-08-07T10:56:31;93879.78;;;23.12;52.61
6433;BME280;3249;42.690;23.260;2023-08-07T10:59:11;93882.94;;;23.22;53.58
6433;BME280;3249;42.690;23.260;2023-08-07T11:01:41;93877.00;;;23.08;54.60
6433;BME280;3249;42.690;23.260;2023-08-07T11:04:12;93878.25;;;23.11;53.46
6433;BME280;3249;42.690;23.260;2023-08-07T11:06:43;93867.16;;;22.83;55.00
6433;BME280;3249;42.690;23.260;2023-08-07T11:09:14;93862.72;;;22.92;54.85
6433;BME280;3249;42.690;23.260;2023-08-07T11:11:46;93863.16;;;22.86;55.27
6433;BME280;3249;42.690;23.260;2023-08-07T11:14:18;93861.75;;;23.19;54.71
6433;BME280;3249;42.690;23.260;2023-08-07T11:16:48;93865.78;;;23.16;50.20
6433;BME280;3249;42.690;23.260;2023-08-07T11:19:18;93835.63;;;23.14;51.47
6433;BME280;3249;42.690;23.260;2023-08-07T11:21:47;93855.06;;;23.52;51.02
6433;BME280;3249;42.690;23.260;2023-08-07T11:24:17;93849.25;;;23.63;50.87
6433;BME280;3249;42.690;23.260;2023-08-07T11:26:47;93859.94;;;23.75;48.28
6433;BME280;3249;42.690;23.260;2023-08-07T11:29:19;93838.91;;;23.75;47.62
6433;BME280;3249;42.690;23.260;2023-08-07T11:31:50;93854.06;;;23.87;48.85
6433;BME280;3249;42.690;23.260;2023-08-07T11:34:20;93856.38;;;23.80;48.35
6433;BME280;3249;42.690;23.260;2023-08-07T11:36:49;93852.03;;;23.84;47.86
6433;BME280;3249;42.690;23.260;2023-08-07T11:39:18;93851.31;;;24.00;49.73
6433;BME280;3249;42.690;23.260;2023-08-07T11:41:47;93844.50;;;24.16;47.76
6433;BME280;3249;42.690;23.260;2023-08-07T11:44:21;93845.41;;;24.37;46.94
6433;BME280;3249;42.690;23.260;2023-08-07T11:46:51;93853.31;;;24.63;45.52
6433;BME280;3249;42.690;23.260;2023-08-07T11:49:20;93838.34;;;24.21;46.17
6433;BME280;3249;42.690;23.260;2023-08-07T11:51:50;93846.06;;;24.34;44.95
6433;BME280;3249;42.690;23.260;2023-08-07T11:54:19;93854.84;;;24.72;45.51
6433;BME280;3249;42.690;23.260;2023-08-07T11:56:48;93843.88;;;24.70;45.84
6433;BME280;3249;42.690;23.260;2023-08-07T11:59:20;93845.22;;;24.76;45.13
6433;BME280;3249;42.690;23.260;2023-08-07T12:01:49;93850.44;;;24.93;46.91
6433;BME280;3249;42.690;23.260;2023-08-07T12:04:18;93848.69;;;25.14;44.26
6433;BME280;3249;42.690;23.260;2023-08-07T12:06:56;93833.28;;;25.33;42.33
6433;BME280;3249;42.690;23.260;2023-08-07T12:09:26;93833.72;;;25.35;44.24
6433;BME280;3249;42.690;23.260;2023-08-07T12:11:58;93845.50;;;24.92;45.95
6433;BME280;3249;42.690;23.260;2023-08-07T12:14:31;93842.13;;;24.57;47.70
6433;BME280;3249;42.690;23.260;2023-08-07T12:17:01;93840.13;;;24.71;48.57
6433;BME280;3249;42.690;23.260;2023-08-07T12:19:38;93837.44;;;24.97;46.95
6433;BME280;3249;42.690;23.260;2023-08-07T12:22:10;93841.63;;;25.35;46.17
6433;BME280;3249;42.690;23.260;2023-08-07T12:24:41;93840.06;;;25.63;45.01
6433;BME280;3249;42.690;23.260;2023-08-07T12:27:10;93821.25;;;25.44;44.75
6433;BME280;3249;42.690;23.260;2023-08-07T12:29:42;93832.22;;;25.55;43.35
6433;BME280;3249;42.690;23.260;2023-08-07T12:32:11;93832.19;;;25.26;45.94
6433;BME280;3249;42.690;23.260;2023-08-07T12:34:40;93837.13;;;25.65;43.76
6433;BME280;3249;42.690;23.260;2023-08-07T12:37:09;93833.09;;;25.38;44.35
6433;BME280;3249;42.690;23.260;2023-08-07T12:39:38;93834.75;;;25.72;44.74
6433;BME280;3249;42.690;23.260;2023-08-07T12:42:07;93845.84;;;25.57;46.26
6433;BME280;3249;42.690;23.260;2023-08-07T12:44:36;93829.94;;;25.07;49.67
6433;BME280;3249;42.690;23.260;2023-08-07T12:47:08;93852.88;;;25.07;52.12
6433;BME280;3249;42.690;23.260;2023-08-07T12:49:37;93843.47;;;25.35;50.16
6433;BME280;3249;42.690;23.260;2023-08-07T12:52:07;93847.81;;;25.39;48.31
6433;BME280;3249;42.690;23.260;2023-08-07T12:54:39;93850.72;;;25.09;51.58
6433;BME280;3249;42.690;23.260;2023-08-07T12:57:08;93849.72;;;25.30;49.94
6433;BME280;3249;42.690;23.260;2023-08-07T12:59:37;93844.09;;;25.69;47.63
6433;BME280;3249;42.690;23.260;2023-08-07T13:02:09;93841.53;;;25.52;48.26
6433;BME280;3249;42.690;23.260;2023-08-07T13:04:38;93840.88;;;24.89;50.94
6433;BME280;3249;42.690;23.260;2023-08-07T13:07:09;93852.94;;;24.90;51.86
6433;BME280;3249;42.690;23.260;2023-08-07T13:09:38;93850.28;;;24.98;51.64
6433;BME280;3249;42.690;23.260;2023-08-07T13:12:07;93853.28;;;25.34;48.53
6433;BME280;3249;42.690;23.260;2023-08-07T13:14:37;93864.31;;;25.19;50.36
6433;BME280;3249;42.690;23.260;2023-08-07T13:17:09;93857.50;;;25.18;50.03
6433;BME280;3249;42.690;23.260;2023-08-07T13:19:38;93863.81;;;25.34;50.08